Terminal Aerodrome Forecast
Issued by NWS

Home | Current Version | Previous Version | Text Only | Print | Product List | Glossary Off
Versions: 1 2 3 4 5 6 7 8 9 10 11 12 13 14 15 16

125
FTUS43 KTOP 161120
TAFFOE
TAF
KFOE 161120Z 1612/1712 06009KT 5SM -RA BR OVC003
     FM161600 VRB06KT 3SM BR VCSH OVC003
     FM170500 29010KT 5SM BR OVC005=

USA.gov is the U.S. government's official web portal to all federal, state and local government web resources and services.